Timeline UpdatesTrip UpdatesNews PostsPvt PostsTravel TipsAdmin PostsConv PostsFollowed PostsChat RequestsBlog PostsPNR Posts

Disclaimer
Search
 
 
Tue Jul 22, 2014 12:51:50 ISTHomeTrainsΣChainsAtlasPNRForumGalleryNewsFAQTripsMembersLoginFeedback
No Recent News for this Train
Other Trains in the News **new
Latest...
Cancelled from 04.01.2013 to 17.02.2013
Sat Jan 05, 2013 (01:09AM)
⇐ Return Journey: Train# 54642

54641/Delhi Firozpur Passenger (UnReserved)

Sep 11 2013 (12:36PM)
Change Departure Station:
Change Arrival Station:
Post a Train Travel TipPost a Train Travel Tip **new
Post a Comment/Question/Picture/VideoPost a Comment/Question/Picture/Video
Pantry/Catering
✕ NO Pantry Car
✕ NO Catering
RSA - Rake Sharing
Rake Sharing With 14629/30 FZR-LDH Satluj Express and 14601/02 SGNR-FZR Express
Rake/Coach Composition
LOCO-SLRD-GS-GS-GS-GS-GS-GS-GS-GS-GS-GS-GS-GS-GS-GS-SLRD
Loco
TKD WDP-1
News    PNR    Forum    Time-Table    Availability    Fare Chart    Map    Arr/Dep History    Trips    Gallery    ΣChains    X/O    Timeline    
Travel Time: 10h 20m    40 halts    Distance: 316 km    Avg Speed: 30 km/hr
Type: Passenger
Zone: NR/Northern
Departs @ 09:15
Platform# ???
SMTWTFS
Rohtak Junction/ROK 
Arrives @ 19:35
Platform# 1
SMTWTFS
Firozpur Cantt. Junction/FZR 

40 halts. 43 intermediate Stations between Rohtak Junction and Firozpur Cantt. Junction

Show ALL intermediate Stations  Show Old Time-Table

#CodeStation NameX/OArrivesAvgDepartsAvgHaltPFDay#KmSpeedElevZoneAddress
1DLIOld Delhi Junction (16)  -07:10-21-70.013219mNRNear Chandni Chowk Metro Station, Delhi NCT
2DKZDelhi KishanGanj (2)  07:23-07:25-2m--1-67.221220mNRSarai Rohilla, Delhi NCT
3VVKPVivekanand Puri Halt (2)  07:30-07:31-1m--1-65.518223mNRSarai Rohilla, Delhi NCT
4DBSIDayabasti  07:35-07:36-1m--1-64.341225mNRZakhira, Delhi NCT
5SSBShakur BastiX  07:42-07:44-2m--1-60.251216mNRPitampura, Delhi NCT
6MGLPMangolpuri  07:49-07:51-2m--1-55.939217mNROutter Ring Rd, Delhi NCT
7NNONangloiX  07:56-07:57-1m--1-52.734219mNRJJ Colony No 1, Delhi NCT
8MQCMundka  08:02-08:03-1m--1-49.936215mNRMundka, Delhi NCT
9GHEGhevraX  08:08-08:09-1m--1-46.980214mNRGhevra, Delhi NCT
10BGZBahadurgarh  08:14-08:15-1m--1-40.280220mNRBahadurgarh, Haryana
11ASEAsaudahX  08:21-08:22-1m--1-32.245216mNRDelhi-Rohtak Corridor, Haryana
12ROHNRohed Nagar HaltX  08:29-08:30-1m--1-26.940220mNRDelhi-Rohtak Corridor, Haryana
13SPZSampla  08:37-08:38-1m--1-22.335222mNRSampla, Haryana
14ISMIsmaila Haryana  08:44-08:45-1m--1-18.859221mNRNational Highway 10, Haryana
15KRZKharawarX  08:52-08:53-1m--1-11.970222mNRKharawar, Haryana
16ABOAsthal Bohar Junction (4)  08:58-09:00-2m--1-6.137223mNRRohtak, Haryana
17ROK»Rohtak Junction (3)»X  09:10-09:15-5m--10.063220mNRRohtak, Haryana
18SMFSamar Gopalpur  09:25-09:26-1m--110.666223mNRNH 71, Haryana
19KHVKarainthi  09:33-09:34-1m--118.333222mNRNH 71, Haryana
20KZHKila ZafargarhX  09:48-09:49-1m--126.054223mNRNH 71, Haryana
21JNAJulana  09:55-09:56-1m--131.445226mNRJulana, Haryana
22JJTJai Jai Wanti  10:04-10:05-1m--137.562227mNRJind, Haryana
23KIUKinanaX  10:12-10:13-1m--144.736225mNRBrarkhera, Haryana
24BSPHBishanpur HaryanaX  10:22-10:23-1m--150.019226mNRBishanpur, Haryana
25JINDJind Junction (3)  10:45-11:00-15m--157.161222mNR126102., Haryana
26BZOBarsola  11:09-11:10-1m--166.258224mNRDistrict Jind, Haryana
27UCAUchana  11:20-11:21-1m--175.853225mNRDistrict Jind, Haryana
28GSOGhaso  11:30-11:31-1m--183.836231mNRDistrict Jind, Haryana
29NRWNarwana Junction (4)  11:43-11:50-7m--191.065235mNRWay to Narwana, Haryana
30DHYDharodi  11:57-11:58-1m--198.654233mNRMDR 111, Haryana
31DTNDhamtan Sahib  12:06-12:07-1m--1105.846234mNRJind District, Haryana
32TUNTohana (2)  12:21-12:22-1m--1116.532232mNRTohana, Haryana
33HMQHimmatpura  12:29-12:30-1m--1120.225228mNRTohana, Haryana
34JHLJakhal JunctionX  12:50-13:05-15m--1128.750225mNRJakhal, Haryana
35BRZBareta  13:22-13:23-1m--1142.951223mNRBareta, Punjab
36DTWDatewas  13:32-13:33-1m--1150.658225mNRBareta, Punjab
37BLZBudhlada  13:41-13:42-1m--1158.352223mNRBudhlada, Punjab
38NPXNarindarpura  13:51-13:52-1m--1166.063224mNRMansa, Punjab
39MSZMansa  14:00-14:01-1m--1174.429222mNRMansa, Punjab
40SSZSadda Singhwala (1)  14:14-14:15-1m11180.628216mNRState Highway 12A, Punjab
41KTKLKotli Kalan  14:20-14:21-1m--1183.076219mNRState Highway 12A, Punjab
42MAURMaur  14:29-14:30-1m--1193.134220mNRMaur Mandi, Punjab
43MASKMaisar KhanaX  14:45-14:46-1m--1201.553215mNRState Highway 12A, Punjab
44KTFKot Fatteh  14:54-14:55-1m--1208.672213mNRBathinda, Punjab
45KZWKatar Singhwala  15:04-15:05-1m--1219.422211mNRState Highway 17, Punjab
46BTIBathinda Junction (6)X  15:30-17:15-105m51228.667208mNRBathinda, Punjab
47GNAGoneana Bhai Jagta (3)  17:26-17:28-2m--1240.949206mNRGoniana, Punjab
48CBXChand BhanX  17:37-17:38-1m--1248.358211mNRJaitu, Punjab
49GJUTGangsar Jaitu (3)  17:45-17:47-2m--1255.157207mNRJaitu, Punjab
50AJTMAjitgill Matta (1)  17:52-17:53-1m11259.841209mNRKotkapura Jaitu Rd, Punjab
51RLSRomana Albel Singh (1)  17:58-17:59-1m11263.298208mNRKotkapura Jaitu Rd, Punjab
52KKPKot Kapura Junction (3)  18:04-18:08-4m11271.4310mNRKotkapura, Punjab
53GZSGiani Zail Singh SandhwanX  18:16-18:18-2m--1275.640210mNRDistt Faridkot, Punjab
54FDKFaridkot (3)  18:31-18:33-2m--1284.145202mNRFaridkot, Punjab
55PKZPipli Pakhi Kalan  18:41-18:42-1m--1290.163200mNRFaridkot, Punjab
56GHAGolehwala  18:49-18:51-2m--1297.553201mNRGolehwala, Punjab
57KBUKasu Begu  19:00-19:02-2m--1305.420198mNRKasu Begu, Punjab
58FZR•Firozpur Cantt. Junction (5)•  19:35--11316.4-200mNRFirozpur Cantt 152001, Punjab
Scroll to Top
Scroll to Bottom